Time;durP1;ratioP1;P1;durP2;ratioP2;P2;SDS_P1;SDS_P2;PMS_P1;PMS_P2;Temp;Humidity;BMP_temperature;BMP_pressure;BME280_temperature;BME280_humidity;BME280_pressure;Samples;Min_cycle;Max_cycle;Signal;HPM_P1;HPM_P2
2022/08/12 00:44:20;;;;;;;4.67;3.87;;;13.30;61.60;;;;;;4182079;28;20769;-73
2022/08/12 00:46:30;;;;;;;2.60;2.40;;;13.30;61.80;;;;;;4174842;28;20181;-72
2022/08/12 00:48:30;;;;;;;3.67;2.87;;;13.30;61.80;;;;;;4164181;28;20169;-73
2022/08/12 00:50:33;;;;;;;3.37;2.63;;;13.30;62.00;;;;;;4164831;28;20275;-73
2022/08/12 00:52:34;;;;;;;3.23;2.73;;;13.20;62.40;;;;;;4165303;28;20208;-73
2022/08/12 00:54:44;;;;;;;4.73;2.53;;;13.20;62.50;;;;;;4165436;28;20189;-73
2022/08/12 00:56:47;;;;;;;4.07;2.43;;;13.20;63.00;;;;;;4165306;28;20211;-73
2022/08/12 00:58:51;;;;;;;3.80;2.30;;;13.20;62.50;;;;;;4165393;28;20255;-73
2022/08/12 01:00:52;;;;;;;3.93;2.10;;;13.20;62.40;;;;;;4164272;28;20235;-73
2022/08/12 01:02:57;;;;;;;2.57;2.37;;;13.10;62.90;;;;;;4181857;28;20216;-73
2022/08/12 01:12:14;;;;;;;2.70;2.50;;;13.00;63.50;;;;;;4181810;28;20641;-73
2022/08/12 01:14:18;;;;;;;2.97;2.77;;;12.90;63.90;;;;;;4180230;28;20192;-72
2022/08/12 01:16:22;;;;;;;3.13;2.83;;;12.90;64.20;;;;;;4181693;28;20192;-73
2022/08/12 01:18:26;;;;;;;4.67;2.70;;;12.90;63.90;;;;;;4181729;28;20176;-73
2022/08/12 01:20:37;;;;;;;3.83;2.97;;;12.90;64.10;;;;;;4180965;28;20208;-73
2022/08/12 01:22:58;;;;;;;3.37;2.77;;;12.90;64.20;;;;;;4181356;28;20204;-73
2022/08/12 01:25:28;;;;;;;3.13;2.83;;;12.90;64.40;;;;;;4181450;28;20546;-74
2022/08/12 01:27:31;;;;;;;2.87;2.60;;;12.90;64.40;;;;;;4181629;28;20681;-75
2022/08/12 01:29:34;;;;;;;4.53;2.67;;;12.90;64.40;;;;;;4181133;28;20188;-73
2022/08/12 01:31:37;;;;;;;3.10;2.90;;;12.90;64.40;;;;;;4180759;28;20251;-74
2022/08/12 01:34:18;;;;;;;3.40;2.60;;;12.90;64.50;;;;;;4181577;28;20200;-73
2022/08/12 01:36:23;;;;;;;2.70;2.50;;;12.90;64.40;;;;;;4181216;28;20611;-73
2022/08/12 01:38:24;;;;;;;3.03;2.73;;;13.00;64.20;;;;;;4181528;28;20195;-73
2022/08/12 01:40:33;;;;;;;3.97;2.60;;;13.00;64.10;;;;;;4180434;28;20763;-74
2022/08/12 01:42:43;;;;;;;4.77;4.37;;;13.00;64.00;;;;;;4180893;28;20593;-74
2022/08/12 01:44:45;;;;;;;3.43;3.23;;;13.00;64.30;;;;;;4181237;28;20164;-74
2022/08/12 01:46:58;;;;;;;3.70;3.37;;;12.90;64.60;;;;;;4179747;28;20274;-74
2022/08/12 01:49:17;;;;;;;4.43;3.70;;;12.80;65.10;;;;;;4181108;28;20648;-74
2022/08/12 01:51:41;;;;;;;3.00;2.80;;;12.80;65.40;;;;;;4180448;28;20707;-74
2022/08/12 01:53:52;;;;;;;7.00;3.33;;;12.70;66.10;;;;;;4180950;28;20188;-74
2022/08/12 01:55:55;;;;;;;2.80;2.60;;;12.60;66.30;;;;;;4179573;28;20196;-73
2022/08/12 01:58:07;;;;;;;4.53;2.20;;;12.60;66.50;;;;;;4181007;28;20180;-73
2022/08/12 02:00:12;;;;;;;2.63;2.43;;;12.70;66.40;;;;;;4181312;28;20664;-73
2022/08/12 02:02:39;;;;;;;3.77;2.60;;;12.70;66.10;;;;;;4180941;28;20826;-74
2022/08/12 02:12:53;;;;;;;3.33;2.77;;;12.50;67.10;;;;;;4178037;28;20253;-73
2022/08/12 02:15:20;;;;;;;3.30;3.00;;;12.40;67.50;;;;;;4179230;28;20189;-74
2022/08/12 02:17:32;;;;;;;3.00;2.80;;;12.40;67.70;;;;;;4174719;28;20211;-73
2022/08/12 02:19:49;;;;;;;3.17;2.90;;;12.30;68.30;;;;;;4173463;28;20622;-73
2022/08/12 02:22:28;;;;;;;3.37;3.10;;;12.30;68.60;;;;;;4178403;28;20659;-74
2022/08/12 02:24:31;;;;;;;2.90;2.70;;;12.30;68.70;;;;;;4178976;28;20192;-74
2022/08/12 02:26:36;;;;;;;3.13;2.83;;;12.20;69.20;;;;;;4180278;28;20828;-73
2022/08/12 02:28:37;;;;;;;3.57;3.27;;;12.20;69.40;;;;;;4177809;28;20192;-73
2022/08/12 02:30:39;;;;;;;3.13;2.90;;;12.10;69.60;;;;;;4177666;28;20242;-74
2022/08/12 02:32:43;;;;;;;3.67;3.37;;;12.10;69.70;;;;;;4180524;28;20211;-74
2022/08/12 02:34:45;;;;;;;2.90;2.70;;;12.10;69.70;;;;;;4180236;28;20655;-75
2022/08/12 02:36:47;;;;;;;3.63;3.27;;;12.10;69.60;;;;;;4178701;28;20183;-74
2022/08/12 02:38:49;;;;;;;3.00;2.73;;;12.10;69.60;;;;;;4180157;28;20275;-75
2022/08/12 02:40:53;;;;;;;3.00;2.80;;;12.10;69.50;;;;;;4179439;28;20218;-74
2022/08/12 02:42:59;;;;;;;3.97;3.67;;;12.10;69.90;;;;;;4180188;28;20200;-73
2022/08/12 02:45:05;;;;;;;3.33;2.80;;;12.00;70.50;;;;;;4180588;28;20255;-74
2022/08/12 02:47:07;;;;;;;3.30;3.00;;;11.90;70.70;;;;;;4179989;28;20168;-74
2022/08/12 02:49:50;;;;;;;2.97;2.77;;;11.90;71.10;;;;;;4178033;28;20188;-74
2022/08/12 02:51:51;;;;;;;4.03;2.70;;;11.90;71.10;;;;;;4175086;28;20282;-73
2022/08/12 02:53:52;;;;;;;3.63;2.93;;;11.90;71.40;;;;;;4179535;28;20192;-74
2022/08/12 02:55:53;;;;;;;3.00;2.70;;;11.90;71.90;;;;;;4180070;28;20190;-74
2022/08/12 02:57:55;;;;;;;3.17;2.80;;;11.80;72.00;;;;;;4178875;28;20199;-74
2022/08/12 02:59:59;;;;;;;3.10;2.70;;;11.80;72.00;;;;;;4180128;28;20648;-74
2022/08/12 03:02:04;;;;;;;3.30;3.00;;;11.80;72.30;;;;;;4178739;28;20205;-74
2022/08/12 03:04:09;;;;;;;3.23;3.00;;;11.80;72.40;;;;;;4180520;28;20166;-74
2022/08/12 03:06:20;;;;;;;3.10;2.60;;;11.70;72.60;;;;;;4180465;28;20207;-74
2022/08/12 03:08:28;;;;;;;3.03;2.70;;;11.70;72.60;;;;;;4180206;28;20178;-73
2022/08/12 03:10:34;;;;;;;3.37;2.60;;;11.70;72.90;;;;;;4179644;28;20706;-74
2022/08/12 03:12:38;;;;;;;3.07;2.77;;;11.70;73.10;;;;;;4178730;28;20211;-73
2022/08/12 03:14:44;;;;;;;3.27;2.97;;;11.70;73.40;;;;;;4180215;28;20199;-73
2022/08/12 03:16:54;;;;;;;2.97;2.70;;;11.80;73.00;;;;;;4179987;28;20183;-75
2022/08/12 03:18:56;;;;;;;4.93;2.73;;;11.80;72.70;;;;;;4178725;28;20187;-75
2022/08/12 03:20:59;;;;;;;3.90;2.60;;;11.90;72.20;;;;;;4179273;28;20546;-74
2022/08/12 03:23:01;;;;;;;3.40;3.07;;;11.90;72.10;;;;;;4179328;28;20255;-74
2022/08/12 03:25:04;;;;;;;4.63;2.53;;;11.90;72.10;;;;;;4178195;28;20283;-74
2022/08/12 03:27:08;;;;;;;2.67;2.43;;;11.80;72.60;;;;;;4178374;28;20221;-74
2022/08/12 03:29:11;;;;;;;3.50;3.20;;;11.70;72.60;;;;;;4178397;28;20199;-74
2022/08/12 03:31:12;;;;;;;3.57;3.27;;;11.70;73.20;;;;;;4178700;28;20291;-74
2022/08/12 03:33:14;;;;;;;4.43;2.87;;;11.60;73.40;;;;;;4179115;28;20200;-74
2022/08/12 03:35:26;;;;;;;3.47;3.17;;;11.60;73.50;;;;;;4179180;28;20274;-74
2022/08/12 03:37:29;;;;;;;5.23;2.70;;;11.60;73.40;;;;;;4179276;28;20167;-74
2022/08/12 03:41:55;;;;;;;3.60;2.97;;;11.60;74.10;;;;;;4178987;28;20194;-74
2022/08/12 04:00:29;;;;;;;5.23;3.97;;;11.40;75.20;;;;;;4178283;28;20240;-74
2022/08/12 04:02:33;;;;;;;3.27;2.97;;;11.50;74.90;;;;;;4179149;28;20208;-73
2022/08/12 04:04:34;;;;;;;4.07;2.90;;;11.50;74.80;;;;;;4179154;28;20182;-74
2022/08/12 04:06:44;;;;;;;2.63;2.43;;;11.50;74.80;;;;;;4178087;28;20188;-73
2022/08/12 04:08:46;;;;;;;4.13;3.13;;;11.40;74.90;;;;;;4177705;28;20591;-74
2022/08/12 04:13:17;;;;;;;2.83;2.63;;;11.30;75.90;;;;;;4178819;28;20249;-73
2022/08/12 04:15:18;;;;;;;6.40;2.83;;;11.30;75.90;;;;;;4178786;28;20178;-73
2022/08/12 04:17:19;;;;;;;3.40;3.10;;;11.40;76.10;;;;;;4178915;28;20202;-74
2022/08/12 04:19:22;;;;;;;3.30;3.00;;;11.40;76.00;;;;;;4179249;28;20231;-74
2022/08/12 04:21:23;;;;;;;4.47;3.27;;;11.30;75.80;;;;;;4177018;28;20219;-74
2022/08/12 04:23:24;;;;;;;3.00;2.70;;;11.30;75.70;;;;;;4177262;28;20203;-74
2022/08/12 04:25:27;;;;;;;3.37;3.10;;;11.30;75.70;;;;;;4178961;28;20337;-74
2022/08/12 04:27:31;;;;;;;3.73;3.40;;;11.20;75.70;;;;;;4176034;28;20233;-74
2022/08/12 04:29:33;;;;;;;4.07;2.80;;;11.30;76.10;;;;;;4175806;28;20612;-74
2022/08/12 04:31:36;;;;;;;2.60;2.40;;;11.20;76.00;;;;;;4176833;28;20184;-74
2022/08/12 04:33:38;;;;;;;5.87;2.93;;;11.20;76.30;;;;;;4178825;28;20222;-74
2022/08/12 04:35:39;;;;;;;3.37;3.03;;;11.20;76.20;;;;;;4178710;28;20214;-74
2022/08/12 04:37:40;;;;;;;2.67;2.47;;;11.20;76.20;;;;;;4178707;28;20192;-74
2022/08/12 04:39:41;;;;;;;3.00;2.70;;;11.20;76.20;;;;;;4178593;28;20578;-74
2022/08/12 04:41:43;;;;;;;3.57;3.27;;;11.10;76.30;;;;;;4178092;28;20194;-74
2022/08/12 04:43:43;;;;;;;3.13;2.83;;;11.10;76.80;;;;;;4176275;28;20223;-74
2022/08/12 04:45:48;;;;;;;3.67;3.00;;;11.20;76.90;;;;;;4160755;28;20191;-74
2022/08/12 04:47:49;;;;;;;3.43;2.87;;;11.20;77.10;;;;;;4162025;28;20176;-74
2022/08/12 04:49:50;;;;;;;4.10;3.50;;;11.10;77.00;;;;;;4174227;28;20187;-74
2022/08/12 04:51:50;;;;;;;2.90;2.70;;;11.20;77.20;;;;;;4177953;28;20535;-74
2022/08/12 04:53:51;;;;;;;3.43;2.87;;;11.20;77.10;;;;;;4177278;28;20698;-74
2022/08/12 04:55:53;;;;;;;3.20;2.93;;;11.20;77.00;;;;;;4178516;28;20282;-75
2022/08/12 04:57:54;;;;;;;3.27;2.97;;;11.30;77.10;;;;;;4178564;28;20254;-75
2022/08/12 04:59:55;;;;;;;3.80;3.50;;;11.30;76.90;;;;;;4178508;28;20307;-75
2022/08/12 05:01:56;;;;;;;3.53;2.80;;;11.40;76.40;;;;;;4177780;28;20657;-75
2022/08/12 05:03:57;;;;;;;3.07;2.77;;;11.50;76.20;;;;;;4179186;28;20633;-75
2022/08/12 05:05:58;;;;;;;3.03;2.73;;;11.50;75.90;;;;;;4178875;28;20317;-74
2022/08/12 05:07:58;;;;;;;3.07;2.83;;;11.60;75.10;;;;;;4177485;28;20181;-75
2022/08/12 05:10:01;;;;;;;3.47;3.17;;;11.70;74.80;;;;;;4178796;28;20194;-75
2022/08/12 05:12:02;;;;;;;5.67;5.17;;;11.70;75.00;;;;;;4177933;28;20181;-75
2022/08/12 05:14:02;;;;;;;6.00;3.20;;;11.70;75.10;;;;;;4178671;28;20192;-75
2022/08/12 05:16:05;;;;;;;4.33;2.83;;;11.70;74.40;;;;;;4178525;28;20253;-74
2022/08/12 05:18:05;;;;;;;3.60;2.73;;;11.70;74.50;;;;;;4180328;28;20194;-74
2022/08/12 05:20:11;;;;;;;2.77;2.53;;;11.70;74.50;;;;;;4181557;28;20204;-74
2022/08/12 05:22:11;;;;;;;2.83;2.53;;;11.80;74.90;;;;;;4179810;28;20207;-74
2022/08/12 05:24:12;;;;;;;3.73;2.87;;;11.80;74.60;;;;;;4180089;28;20281;-75
2022/08/12 05:26:12;;;;;;;2.83;2.63;;;11.80;74.70;;;;;;4181286;28;20184;-74
2022/08/12 05:28:14;;;;;;;3.50;3.20;;;11.80;74.60;;;;;;4181356;28;20298;-74
2022/08/12 05:30:15;;;;;;;3.90;2.43;;;11.80;74.90;;;;;;4180798;28;20192;-74
2022/08/12 05:32:19;;;;;;;3.63;3.33;;;11.80;74.90;;;;;;4180934;28;20625;-75
2022/08/12 05:34:20;;;;;;;3.07;2.87;;;11.90;75.10;;;;;;4181203;28;20597;-75
2022/08/12 05:36:20;;;;;;;3.27;3.00;;;11.90;75.60;;;;;;4181355;28;20184;-78
2022/08/12 05:40:40;;;;;;;3.20;2.83;;;12.00;75.00;;;;;;4180478;28;20876;-75
2022/08/12 05:42:41;;;;;;;2.93;2.63;;;12.00;74.80;;;;;;4179454;28;20204;-75
2022/08/12 05:44:42;;;;;;;5.13;3.20;;;12.00;74.50;;;;;;4180754;28;20176;-76
2022/08/12 05:46:42;;;;;;;3.90;3.60;;;12.00;74.60;;;;;;4179468;28;20179;-75
2022/08/12 05:48:43;;;;;;;3.50;2.70;;;12.10;74.10;;;;;;4180737;28;20299;-75
2022/08/12 05:50:44;;;;;;;3.47;3.17;;;12.20;73.80;;;;;;4180331;28;20980;-75
2022/08/12 05:52:45;;;;;;;3.40;3.10;;;12.20;73.70;;;;;;4180989;28;20254;-75
2022/08/12 05:54:46;;;;;;;3.83;3.50;;;12.30;73.40;;;;;;4180827;28;20211;-75
2022/08/12 05:56:47;;;;;;;3.70;3.03;;;12.30;73.00;;;;;;4181037;28;20175;-75
2022/08/12 05:58:47;;;;;;;2.90;2.70;;;12.40;72.80;;;;;;4180868;28;20188;-74
2022/08/12 06:00:48;;;;;;;3.37;3.07;;;12.40;72.60;;;;;;4180110;28;20232;-75
2022/08/12 06:02:48;;;;;;;2.40;2.20;;;12.40;73.00;;;;;;4180753;28;20211;-75
2022/08/12 06:04:49;;;;;;;5.17;2.80;;;12.50;72.30;;;;;;4180576;28;20564;-75
2022/08/12 06:06:52;;;;;;;3.50;3.20;;;12.50;73.00;;;;;;4180526;28;20408;-75
2022/08/12 06:08:53;;;;;;;2.70;2.50;;;12.50;72.60;;;;;;4180515;28;20179;-75
2022/08/12 06:10:55;;;;;;;4.40;4.00;;;12.60;72.50;;;;;;4179771;28;20325;-74
2022/08/12 06:12:57;;;;;;;3.30;2.90;;;12.70;71.90;;;;;;4180552;28;20192;-75
2022/08/12 06:14:58;;;;;;;2.80;2.60;;;12.80;71.50;;;;;;4180363;28;20811;-75
2022/08/12 06:17:00;;;;;;;4.17;3.73;;;12.90;70.50;;;;;;4179122;28;20188;-75
2022/08/12 06:19:01;;;;;;;4.13;3.80;;;13.00;70.80;;;;;;4180695;28;20192;-74
2022/08/12 06:21:01;;;;;;;3.43;3.17;;;13.00;70.80;;;;;;4179596;28;20291;-75
2022/08/12 06:23:02;;;;;;;2.63;2.43;;;13.10;69.50;;;;;;4180126;28;20676;-74
2022/08/12 06:25:03;;;;;;;4.60;2.97;;;13.20;68.60;;;;;;4180235;28;20207;-74
2022/08/12 06:27:03;;;;;;;4.83;3.03;;;13.30;68.10;;;;;;4180056;28;20180;-74
2022/08/12 06:29:04;;;;;;;4.57;2.47;;;13.30;67.60;;;;;;4179306;28;20260;-74
2022/08/12 06:31:05;;;;;;;2.97;2.73;;;13.40;67.50;;;;;;4179426;28;20734;-75
2022/08/12 06:33:07;;;;;;;4.67;2.57;;;13.50;67.20;;;;;;4179919;28;20224;-74
2022/08/12 06:35:08;;;;;;;3.43;2.20;;;13.60;67.20;;;;;;4180166;28;20708;-74
2022/08/12 06:37:09;;;;;;;6.43;2.50;;;13.80;65.90;;;;;;4179961;28;20181;-75
2022/08/12 06:39:12;;;;;;;3.47;2.50;;;13.90;65.90;;;;;;4179717;28;20242;-75
2022/08/12 06:43:33;;;;;;;6.27;2.60;;;14.10;65.90;;;;;;4180050;28;20211;-75
2022/08/12 06:45:43;;;;;;;3.10;2.90;;;14.20;65.30;;;;;;4179370;28;20176;-75
2022/08/12 06:47:44;;;;;;;2.37;2.17;;;14.40;64.30;;;;;;4179338;28;20241;-76
2022/08/12 06:49:45;;;;;;;3.33;2.33;;;14.50;63.20;;;;;;4180073;28;20181;-75
2022/08/12 06:51:46;;;;;;;3.20;2.30;;;14.60;63.60;;;;;;4172246;28;20211;-75
2022/08/12 06:53:46;;;;;;;4.93;2.40;;;14.80;62.40;;;;;;4162065;28;20189;-76
2022/08/12 06:55:47;;;;;;;3.07;2.60;;;14.90;61.60;;;;;;4163374;28;20188;-75
2022/08/12 06:57:57;;;;;;;2.80;2.60;;;15.10;61.40;;;;;;4161886;28;20191;-75
2022/08/12 06:59:58;;;;;;;4.17;3.90;;;15.20;60.50;;;;;;4161892;28;20915;-75
2022/08/12 07:01:58;;;;;;;2.77;2.37;;;15.20;61.00;;;;;;4162555;28;20256;-74
2022/08/12 07:03:59;;;;;;;2.47;2.17;;;15.50;59.70;;;;;;4163402;28;20177;-75
2022/08/12 07:06:03;;;;;;;8.73;8.13;;;15.80;58.30;;;;;;4162306;28;20181;-75
2022/08/12 07:08:05;;;;;;;6.67;4.90;;;16.00;57.50;;;;;;4163264;28;20226;-75
2022/08/12 07:10:07;;;;;;;2.17;1.93;;;16.30;56.10;;;;;;4161777;28;20252;-75
2022/08/12 07:12:18;;;;;;;2.40;2.20;;;16.40;56.20;;;;;;4162518;28;20678;-76
2022/08/12 07:14:20;;;;;;;3.13;2.27;;;16.60;55.20;;;;;;4162132;28;20171;-75
2022/08/12 07:16:21;;;;;;;3.67;3.30;;;16.90;54.10;;;;;;4161947;28;20189;-75
2022/08/12 07:18:28;;;;;;;7.70;7.10;;;16.90;54.50;;;;;;4161818;28;20196;-76
2022/08/12 07:20:29;;;;;;;4.10;2.40;;;17.00;54.10;;;;;;4160991;28;20686;-75
2022/08/12 07:22:29;;;;;;;3.70;3.40;;;17.10;53.60;;;;;;4162927;28;20229;-76
2022/08/12 07:24:31;;;;;;;8.63;7.87;;;17.20;53.70;;;;;;4161743;28;20689;-75
2022/08/12 07:26:32;;;;;;;1.90;1.80;;;17.10;53.20;;;;;;4161579;28;20226;-75
2022/08/12 07:28:38;;;;;;;4.13;3.80;;;17.40;52.00;;;;;;4161682;28;20658;-75
2022/08/12 07:30:41;;;;;;;2.57;2.17;;;17.60;52.00;;;;;;4160970;28;20200;-70
2022/08/12 07:32:45;;;;;;;2.40;2.20;;;17.70;52.10;;;;;;4162313;28;20277;-74
2022/08/12 07:34:46;;;;;;;2.67;2.37;;;17.90;50.10;;;;;;4162850;28;20187;-75
2022/08/12 07:36:47;;;;;;;5.10;4.70;;;18.00;50.30;;;;;;4162781;28;20185;-75
2022/08/12 07:38:50;;;;;;;2.03;1.90;;;18.20;49.10;;;;;;4161680;28;20555;-74
2022/08/12 07:41:09;;;;;;;4.23;3.47;;;18.40;48.30;;;;;;4162204;28;20209;-75
2022/08/12 07:43:10;;;;;;;3.33;2.10;;;18.60;47.20;;;;;;4179429;28;20242;-75
2022/08/12 07:45:12;;;;;;;8.83;8.27;;;18.60;46.30;;;;;;4167580;28;20672;-75
2022/08/12 07:47:13;;;;;;;2.47;2.23;;;18.70;47.00;;;;;;4165249;28;20176;-74
2022/08/12 07:49:15;;;;;;;2.47;1.83;;;18.90;46.00;;;;;;4164473;28;20188;-75
2022/08/12 07:51:18;;;;;;;26.63;24.97;;;19.10;45.90;;;;;;4164691;28;20181;-75
2022/08/12 07:53:20;;;;;;;4.00;2.20;;;19.30;45.10;;;;;;4160943;28;20197;-74
2022/08/12 07:55:21;;;;;;;10.67;10.03;;;19.40;43.20;;;;;;4161876;28;20181;-74
2022/08/12 07:57:21;;;;;;;23.77;22.27;;;19.30;42.80;;;;;;4159625;28;20886;-74
2022/08/12 07:59:22;;;;;;;27.27;25.57;;;19.40;42.70;;;;;;4159577;28;20613;-74
2022/08/12 08:01:23;;;;;;;5.30;4.87;;;19.50;43.20;;;;;;4159100;28;20670;-74
2022/08/12 08:03:25;;;;;;;4.30;4.00;;;19.50;42.60;;;;;;4159637;28;20235;-75
2022/08/12 08:05:34;;;;;;;5.17;2.30;;;19.80;41.60;;;;;;4176100;28;20778;-75
2022/08/12 08:07:35;;;;;;;2.57;2.37;;;20.10;42.20;;;;;;4159988;28;20188;-74
2022/08/12 08:09:36;;;;;;;4.83;2.27;;;20.20;41.00;;;;;;4159931;28;20220;-74
2022/08/12 08:14:00;;;;;;;2.40;2.20;;;20.50;40.30;;;;;;4161314;28;20192;-74
2022/08/12 08:16:01;;;;;;;11.93;10.90;;;20.70;39.70;;;;;;4162285;28;20185;-74
2022/08/12 08:18:05;;;;;;;4.13;3.27;;;20.50;40.40;;;;;;4160881;28;20179;-74
2022/08/12 08:20:09;;;;;;;13.43;12.30;;;20.60;39.30;;;;;;4144747;28;20202;-73
2022/08/12 08:22:09;;;;;;;6.63;4.93;;;20.60;39.00;;;;;;4160475;28;20247;-74
2022/08/12 08:24:13;;;;;;;8.53;6.23;;;20.80;39.20;;;;;;4162334;28;20185;-74
2022/08/12 08:26:15;;;;;;;4.27;3.10;;;20.70;38.40;;;;;;4160983;28;20169;-74
2022/08/12 08:28:16;;;;;;;3.67;3.43;;;20.70;38.50;;;;;;4160974;28;20560;-75
2022/08/12 08:30:16;;;;;;;2.23;2.03;;;20.80;39.00;;;;;;4160358;28;20248;-72
2022/08/12 08:32:17;;;;;;;2.50;2.27;;;20.80;38.60;;;;;;4160828;28;20200;-74
2022/08/12 08:34:18;;;;;;;3.57;2.27;;;20.90;38.50;;;;;;4162192;28;20597;-74
2022/08/12 08:36:20;;;;;;;8.13;7.63;;;21.10;39.50;;;;;;4160872;28;20181;-73
2022/08/12 08:38:21;;;;;;;3.67;3.03;;;21.10;37.70;;;;;;4144526;28;20259;-74
2022/08/12 08:42:42;;;;;;;7.80;3.20;;;21.30;37.60;;;;;;4176851;28;20658;-74
2022/08/12 08:44:42;;;;;;;17.93;16.63;;;21.40;36.70;;;;;;4178636;28;20683;-74
2022/08/12 08:46:43;;;;;;;3.87;2.60;;;21.40;36.40;;;;;;4177210;28;20246;-74
2022/08/12 08:48:44;;;;;;;5.17;4.83;;;21.50;35.90;;;;;;4175589;28;20177;-74
2022/08/12 08:50:44;;;;;;;4.10;3.80;;;21.70;35.40;;;;;;4161461;28;20243;-74
2022/08/12 08:52:47;;;;;;;9.53;8.93;;;21.90;34.80;;;;;;4161895;28;20228;-74
2022/08/12 08:54:48;;;;;;;3.73;3.47;;;21.70;35.20;;;;;;4163495;28;20207;-73
2022/08/12 08:56:49;;;;;;;6.40;5.80;;;21.60;35.70;;;;;;4163689;28;20189;-74
2022/08/12 08:58:49;;;;;;;9.33;8.67;;;21.70;35.70;;;;;;4163669;28;20181;-74
2022/08/12 09:00:50;;;;;;;3.77;2.30;;;21.50;35.80;;;;;;4164333;28;20613;-73
2022/08/12 09:02:51;;;;;;;6.03;5.67;;;21.70;35.30;;;;;;4163492;28;20208;-74
2022/08/12 09:04:51;;;;;;;33.90;31.50;;;21.50;35.60;;;;;;4163707;28;20177;-74
2022/08/12 09:06:59;;;;;;;3.37;2.10;;;21.80;35.40;;;;;;4163744;28;20283;-73
2022/08/12 09:09:03;;;;;;;2.93;2.07;;;22.20;35.40;;;;;;4163726;28;20263;-75
2022/08/12 09:13:26;;;;;;;4.30;2.03;;;22.70;34.00;;;;;;4163008;28;20736;-72
2022/08/12 09:13:27;;;;;;;1.97;1.87;;;22.90;32.40;;;;;;4163800;28;20213;-73
2022/08/12 09:15:29;;;;;;;4.70;4.40;;;22.90;31.70;;;;;;4163600;28;20662;-73
2022/08/12 09:17:32;;;;;;;2.37;2.17;;;23.00;31.60;;;;;;4163484;28;20231;-73
2022/08/12 09:19:33;;;;;;;2.40;2.20;;;22.90;31.40;;;;;;4164549;28;20213;-73
2022/08/12 09:21:35;;;;;;;3.00;2.27;;;22.90;30.60;;;;;;4164162;28;20193;-73
2022/08/12 09:23:35;;;;;;;4.87;1.83;;;23.00;31.00;;;;;;4164606;28;20241;-73
2022/08/12 09:25:39;;;;;;;3.00;2.80;;;23.10;30.40;;;;;;4163046;28;20311;-73
2022/08/12 09:27:41;;;;;;;4.00;2.00;;;22.90;30.70;;;;;;4163596;28;20184;-72
2022/08/12 09:29:42;;;;;;;3.73;2.83;;;23.00;31.90;;;;;;4163227;28;20262;-73
2022/08/12 09:31:42;;;;;;;3.57;2.00;;;23.30;30.40;;;;;;4162914;28;20932;-73
2022/08/12 09:33:43;;;;;;;3.60;2.93;;;23.20;30.00;;;;;;4163445;28;20215;-73
2022/08/12 09:35:44;;;;;;;21.00;19.67;;;23.20;29.80;;;;;;4164463;28;20189;-73
2022/08/12 09:37:54;;;;;;;3.87;2.70;;;23.10;30.10;;;;;;4163159;28;20189;-73
2022/08/12 09:39:55;;;;;;;2.00;1.90;;;23.20;30.00;;;;;;4164398;28;20207;-73
2022/08/12 09:46:34;;;;;;;124.03;115.10;;;23.70;29.50;;;;;;4164555;28;20179;-74
2022/08/12 09:48:35;;;;;;;2.37;2.20;;;23.60;28.60;;;;;;4163634;28;20185;-74
2022/08/12 09:50:36;;;;;;;3.30;1.70;;;23.50;29.10;;;;;;4162974;28;20193;-74
2022/08/12 09:52:37;;;;;;;2.20;1.80;;;23.90;29.00;;;;;;4163087;28;20217;-73
2022/08/12 09:54:37;;;;;;;18.80;17.63;;;23.90;28.50;;;;;;4164794;28;20272;-73
2022/08/12 09:56:40;;;;;;;1.93;1.83;;;23.70;28.50;;;;;;4163183;28;20188;-76
2022/08/12 09:58:41;;;;;;;8.83;8.23;;;23.80;28.20;;;;;;4163348;28;20247;-73
2022/08/12 10:00:46;;;;;;;3.00;2.80;;;24.20;27.90;;;;;;4163147;28;20204;-72
2022/08/12 10:03:05;;;;;;;4.57;4.27;;;24.50;28.00;;;;;;4164316;28;20259;-74
2022/08/12 10:05:08;;;;;;;2.30;1.60;;;24.20;28.20;;;;;;4164617;28;20216;-72
2022/08/12 10:07:09;;;;;;;3.30;2.20;;;24.60;27.20;;;;;;4163427;28;20177;-73
2022/08/12 10:09:10;;;;;;;3.40;2.00;;;24.60;27.30;;;;;;4165326;28;20192;-74
2022/08/12 10:13:40;;;;;;;3.97;1.90;;;25.50;27.00;;;;;;4163631;28;20230;-74
2022/08/12 10:15:43;;;;;;;5.77;5.37;;;25.70;26.00;;;;;;4163949;28;20256;-73
2022/08/12 10:17:44;;;;;;;67.17;62.83;;;26.10;25.00;;;;;;4163474;28;20677;-74
2022/08/12 10:19:44;;;;;;;4.07;3.67;;;26.20;25.60;;;;;;4163350;28;20205;-74
2022/08/12 10:21:46;;;;;;;2.07;1.90;;;26.50;24.90;;;;;;4163994;28;20182;-73
2022/08/12 10:23:48;;;;;;;4.87;4.57;;;26.10;24.30;;;;;;4164646;28;20177;-73
2022/08/12 10:30:28;;;;;;;3.87;3.67;;;25.70;24.80;;;;;;4163016;28;20215;-73
2022/08/12 10:32:28;;;;;;;2.07;1.80;;;26.60;24.20;;;;;;4162833;28;20209;-74
2022/08/12 10:34:29;;;;;;;13.50;12.67;;;26.80;23.50;;;;;;4163552;28;20240;-74
2022/08/12 10:36:33;;;;;;;11.33;10.50;;;26.10;24.20;;;;;;4163169;28;20185;-73
2022/08/12 10:38:34;;;;;;;2.17;2.00;;;26.60;23.30;;;;;;4163187;28;20649;-74
2022/08/12 10:43:39;;;;;;;7.10;6.60;;;26.70;23.70;;;;;;4162320;28;20204;-74
2022/08/12 10:45:15;;;;;;;2.67;2.00;;;26.60;23.60;;;;;;4163025;28;20736;-74
2022/08/12 10:47:16;;;;;;;3.40;2.28;;;27.40;23.10;;;;;;4170938;28;20792;-74
2022/08/12 10:49:18;;;;;;;12.35;11.15;;;28.90;22.00;;;;;;4180837;28;20191;-74
2022/08/12 10:51:19;;;;;;;4.07;3.70;;;29.40;21.40;;;;;;4178800;28;20233;-74
2022/08/12 10:53:21;;;;;;;3.60;3.38;;;28.90;20.70;;;;;;4178992;28;20760;-74
2022/08/12 10:55:21;;;;;;;2.72;2.53;;;28.50;21.70;;;;;;4180268;28;20176;-74
2022/08/12 10:57:25;;;;;;;25.13;23.63;;;28.50;21.70;;;;;;4179075;28;20184;-74
2022/08/12 10:59:30;;;;;;;3.72;3.42;;;28.80;21.20;;;;;;4179132;28;20211;-73
2022/08/12 11:01:32;;;;;;;116.30;105.40;;;28.60;21.20;;;;;;4178313;28;20184;-73
2022/08/12 11:03:36;;;;;;;2.78;2.58;;;28.70;20.50;;;;;;4178827;28;20219;-73
2022/08/12 11:05:36;;;;;;;53.53;49.08;;;28.50;21.20;;;;;;4181463;28;20184;-73
2022/08/12 11:07:37;;;;;;;2.58;2.38;;;29.50;19.40;;;;;;4180860;28;20680;-73
2022/08/12 11:09:38;;;;;;;27.15;25.33;;;29.90;19.10;;;;;;4180326;28;20698;-73
2022/08/12 11:11:40;;;;;;;9.55;8.95;;;30.90;18.30;;;;;;4179654;28;20191;-73
2022/08/12 11:13:41;;;;;;;3.05;2.85;;;31.30;17.50;;;;;;4179149;28;20346;-73
2022/08/12 11:15:42;;;;;;;8.65;8.07;;;30.40;18.30;;;;;;4178610;28;20684;-73
2022/08/12 11:17:43;;;;;;;322.88;198.27;;;31.40;17.80;;;;;;4180213;28;20215;-73
2022/08/12 11:19:44;;;;;;;34.00;31.60;;;30.40;17.80;;;;;;4180001;28;20227;-73
2022/08/12 11:21:45;;;;;;;3.42;2.58;;;30.50;18.90;;;;;;4178384;28;20183;-73
2022/08/12 11:23:45;;;;;;;8.07;7.35;;;30.00;19.30;;;;;;4178881;28;20266;-73
2022/08/12 11:25:47;;;;;;;44.08;40.50;;;30.70;18.20;;;;;;4180629;28;20179;-73
2022/08/12 11:27:48;;;;;;;8.45;7.82;;;30.80;19.00;;;;;;4178770;28;20279;-73
2022/08/12 11:29:48;;;;;;;5.20;4.75;;;30.40;18.40;;;;;;4179847;28;20661;-73
2022/08/12 11:31:49;;;;;;;6.97;4.00;;;30.40;18.10;;;;;;4178145;28;20172;-72
2022/08/12 11:33:50;;;;;;;261.30;185.23;;;30.50;18.10;;;;;;4178382;28;20181;-73
2022/08/12 11:35:51;;;;;;;10.30;9.25;;;30.10;17.70;;;;;;4178828;28;20234;-72
2022/08/12 11:37:52;;;;;;;24.85;22.58;;;30.10;18.80;;;;;;4179899;28;20230;-73
2022/08/12 11:39:54;;;;;;;10.43;9.73;;;30.50;17.90;;;;;;4178479;28;20652;-73
2022/08/12 11:41:54;;;;;;;8.93;8.13;;;31.40;17.40;;;;;;4179115;28;20193;-72
2022/08/12 11:43:55;;;;;;;3.53;3.10;;;30.50;17.60;;;;;;4180135;28;20176;-73
2022/08/12 11:45:56;;;;;;;7.43;6.63;;;30.30;17.70;;;;;;4161708;28;20235;-73
2022/08/12 11:48:00;;;;;;;3.85;3.65;;;30.30;18.00;;;;;;4179593;28;20176;-73
2022/08/12 11:50:01;;;;;;;30.40;24.33;;;30.80;17.90;;;;;;4178188;28;20207;-72
2022/08/12 11:52:03;;;;;;;117.57;74.45;;;31.90;16.70;;;;;;4177689;28;20184;-73
2022/08/12 11:54:05;;;;;;;3.45;3.10;;;33.50;15.40;;;;;;4179498;28;20187;-72
2022/08/12 11:56:06;;;;;;;7.20;6.00;;;33.40;15.80;;;;;;4178355;28;20176;-72
2022/08/12 11:58:07;;;;;;;15.02;12.73;;;33.70;15.60;;;;;;4178321;28;20966;-73
2022/08/12 12:00:09;;;;;;;22.70;20.88;;;33.40;15.10;;;;;;4179351;28;20322;-73
2022/08/12 12:02:10;;;;;;;168.30;105.35;;;33.80;14.80;;;;;;4177836;28;20653;-73
2022/08/12 12:04:10;;;;;;;13.25;12.38;;;34.70;14.50;;;;;;4178515;28;20184;-73
2022/08/12 12:06:12;;;;;;;4.03;2.67;;;34.00;15.20;;;;;;4179203;28;20169;-73
2022/08/12 12:08:24;;;;;;;216.88;126.95;;;34.40;14.70;;;;;;4179342;28;20254;-73
2022/08/12 12:10:24;;;;;;;10.02;9.23;;;34.90;14.40;;;;;;4177740;28;20306;-72
2022/08/12 12:12:25;;;;;;;10.02;9.23;;;34.90;14.20;;;;;;4161599;28;20209;-74
2022/08/12 12:14:26;;;;;;;6.03;5.70;;;35.00;14.10;;;;;;4179252;28;20271;-74
2022/08/12 12:16:26;;;;;;;70.13;58.72;;;35.10;14.20;;;;;;4179327;28;20229;-72
2022/08/12 12:18:30;;;;;;;99.03;71.38;;;35.70;13.90;;;;;;4179326;28;20263;-72
2022/08/12 12:20:33;;;;;;;30.92;27.65;;;34.80;14.10;;;;;;4176736;28;20269;-73
2022/08/12 12:22:34;;;;;;;6.72;6.32;;;33.30;15.60;;;;;;4178717;28;20196;-72